Tecumseh, Kansas
Current Conditions -  °F | °C
As of 2:04 AM on Saturday 25 Oct 2014 (Local Time) from KTOP Reporting Station
Moderate Fog Moderate Fog  
Wind Chill: 56°   Ceiling: Unl
Heat Index: 56°   Visibility: 0.5mi
Dew Point: 56°   Wind: 3mph
Humidity: 100%   Direction: 320°NW
Pressure: 30.01"   Gusts: NA
Location:  39.05°N, 95.58°W
Report Text: KTOP 250704Z AUTO 32003KT 1/2SM FG CLR 13/13 A3001 RMK AO2 T01330133
Loading
Personal Weather Stations






























Interactive Weather Map
Tropical Storm Tracking
New forecast layout! Learn more

10-Day Weather Forecast

Advertisements
Track Severe Weather on mobile